Time;durP1;ratioP1;P1;durP2;ratioP2;P2;SDS_P1;SDS_P2;PMS_P1;PMS_P2;Temp;Humidity;BMP_temperature;BMP_pressure;BME280_temperature;BME280_humidity;BME280_pressure;Samples;Min_cycle;Max_cycle;Signal;HPM_P1;HPM_P2
2023/07/28 00:02:12;;;;;;;;;1.00;0.20;;;;;17.74;84.68;98828.53;5010177;28;8971;-58
2023/07/28 00:04:40;;;;;;;;;2.60;1.00;;;;;17.74;84.99;98827.69;5002384;28;8949;-57
2023/07/28 00:07:09;;;;;;;;;0.80;0.80;;;;;17.73;85.38;98826.03;5014916;28;9472;-59
2023/07/28 00:09:37;;;;;;;;;1.00;1.00;;;;;17.72;84.73;98822.53;5015525;28;8841;-57
2023/07/28 00:12:04;;;;;;;;;3.20;2.20;;;;;17.71;85.29;98823.56;5009970;28;9844;-57
2023/07/28 00:14:32;;;;;;;;;3.00;3.00;;;;;17.71;84.95;98826.25;5014017;28;8887;-57
2023/07/28 00:17:00;;;;;;;;;0.80;0.00;;;;;17.70;85.49;98821.84;5009031;28;8835;-58
2023/07/28 00:19:27;;;;;;;;;1.00;1.00;;;;;17.70;85.55;98815.66;4993998;28;8861;-57
2023/07/28 00:21:56;;;;;;;;;3.00;3.00;;;;;17.68;85.52;98818.53;5003991;28;10137;-58
2023/07/28 00:24:23;;;;;;;;;3.40;1.00;;;;;17.66;85.19;98820.59;4994235;28;8829;-57
2023/07/28 00:26:55;;;;;;;;;3.00;3.00;;;;;17.65;85.12;98813.56;5003273;28;8850;-56
2023/07/28 00:29:28;;;;;;;;;2.20;2.20;;;;;17.62;85.21;98821.19;5009166;28;8840;-57
2023/07/28 00:31:58;;;;;;;;;2.20;1.80;;;;;17.59;85.63;98819.72;5037816;28;8869;-60
2023/07/28 00:34:28;;;;;;;;;2.20;1.00;;;;;17.57;85.84;98815.53;5032077;28;8917;-60
2023/07/28 00:36:56;;;;;;;;;1.00;1.00;;;;;17.55;85.54;98821.09;5032184;28;8823;-60
2023/07/28 00:39:24;;;;;;;;;4.20;3.00;;;;;17.54;85.92;98824.81;5030640;28;8812;-60
2023/07/28 00:41:52;;;;;;;;;3.40;3.00;;;;;17.52;86.12;98813.44;5021460;28;8883;-57
2023/07/28 00:44:19;;;;;;;;;1.40;1.40;;;;;17.53;85.66;98825.03;5000022;28;8810;-58
2023/07/28 00:46:47;;;;;;;;;3.40;2.60;;;;;17.50;86.06;98815.50;4993868;28;8848;-60
2023/07/28 00:49:15;;;;;;;;;1.40;1.00;;;;;17.49;85.87;98812.97;5005904;28;8812;-58
2023/07/28 00:51:42;;;;;;;;;1.00;1.00;;;;;17.48;86.07;98814.00;5022930;28;8855;-60
2023/07/28 00:54:10;;;;;;;;;1.00;1.00;;;;;17.47;86.10;98806.97;5020806;28;8857;-60
2023/07/28 00:56:38;;;;;;;;;0.40;0.40;;;;;17.45;86.18;98809.84;5009821;28;8838;-57
2023/07/28 00:59:05;;;;;;;;;1.00;1.00;;;;;17.44;85.74;98813.56;5005020;28;8901;-57
2023/07/28 01:01:33;;;;;;;;;2.20;1.80;;;;;17.43;86.17;98814.59;4997603;28;8842;-58
2023/07/28 01:04:01;;;;;;;;;1.00;1.00;;;;;17.43;86.36;98813.75;5002568;28;9624;-57
2023/07/28 01:06:28;;;;;;;;;1.00;1.00;;;;;17.43;86.35;98811.06;5021021;28;8824;-57
2023/07/28 01:08:56;;;;;;;;;0.40;0.40;;;;;17.43;86.37;98808.34;5013061;28;8830;-56
2023/07/28 01:11:24;;;;;;;;;2.20;1.00;;;;;17.43;86.11;98803.81;4997228;28;8818;-56
2023/07/28 01:13:51;;;;;;;;;0.00;0.00;;;;;17.43;86.15;98811.91;5002452;28;8888;-57
2023/07/28 01:16:19;;;;;;;;;1.00;1.00;;;;;17.43;85.87;98805.66;5029576;28;8838;-60
2023/07/28 01:18:47;;;;;;;;;1.00;1.00;;;;;17.44;86.37;98804.63;5035724;28;8824;-60
2023/07/28 01:21:14;;;;;;;;;1.40;1.40;;;;;17.44;86.28;98799.25;5035668;28;8816;-58
2023/07/28 01:23:42;;;;;;;;;1.00;1.00;;;;;17.44;85.85;98799.25;5035626;28;8828;-59
2023/07/28 01:26:10;;;;;;;;;1.80;1.00;;;;;17.43;85.90;98800.28;5035303;28;8827;-60
2023/07/28 01:28:37;;;;;;;;;1.00;1.00;;;;;17.42;86.34;98799.47;5035504;28;8867;-59
2023/07/28 01:31:05;;;;;;;;;0.60;0.60;;;;;17.43;86.56;98803.81;5035404;28;8874;-60
2023/07/28 01:33:33;;;;;;;;;1.00;1.00;;;;;17.43;86.40;98801.13;5034887;28;8841;-59
2023/07/28 01:36:01;;;;;;;;;0.80;0.80;;;;;17.43;86.48;98800.28;5035258;28;8821;-59
2023/07/28 01:38:30;;;;;;;;;3.00;2.60;;;;;17.43;86.29;98798.44;5035094;28;8824;-59
2023/07/28 01:40:58;;;;;;;;;0.40;0.40;;;;;17.43;86.08;98797.59;5035206;28;8835;-59
2023/07/28 01:43:25;;;;;;;;;1.00;1.00;;;;;17.43;86.13;98792.22;5035542;28;8855;-59
2023/07/28 01:45:53;;;;;;;;;1.00;1.00;;;;;17.44;86.09;98800.09;5026555;28;8806;-58
2023/07/28 01:48:20;;;;;;;;;1.00;1.00;;;;;17.45;85.88;98795.56;5021306;28;8804;-57
2023/07/28 01:50:48;;;;;;;;;0.80;0.00;;;;;17.44;86.53;98794.72;5035005;28;8816;-60
2023/07/28 01:53:16;;;;;;;;;0.20;0.20;;;;;17.45;86.61;98796.38;5025615;28;8811;-59
2023/07/28 01:55:43;;;;;;;;;0.00;0.00;;;;;17.45;86.14;98795.56;5014829;28;8830;-60
2023/07/28 01:58:11;;;;;;;;;1.00;0.80;;;;;17.45;86.47;98796.38;5014918;28;8937;-60
2023/07/28 02:00:39;;;;;;;;;0.00;0.00;;;;;17.46;86.61;98803.44;5014508;28;8818;-60
2023/07/28 02:03:07;;;;;;;;;0.80;0.80;;;;;17.47;86.27;98799.69;5015995;28;8838;-59
2023/07/28 02:05:34;;;;;;;;;0.00;0.00;;;;;17.47;86.35;98804.28;5015067;28;8818;-58
2023/07/28 02:08:02;;;;;;;;;1.00;1.00;;;;;17.48;85.83;98812.13;5015158;28;8846;-58
2023/07/28 02:10:30;;;;;;;;;0.00;0.00;;;;;17.49;85.92;98807.59;5023851;28;8820;-57
2023/07/28 02:12:57;;;;;;;;;0.00;0.00;;;;;17.49;86.09;98808.44;5023281;28;8830;-57
2023/07/28 02:15:25;;;;;;;;;0.40;0.00;;;;;17.49;85.90;98813.81;5027106;28;8828;-57
2023/07/28 02:17:53;;;;;;;;;0.00;0.00;;;;;17.53;85.89;98809.72;5034651;28;8816;-56
2023/07/28 02:20:20;;;;;;;;;0.00;0.00;;;;;17.54;86.35;98805.97;5032169;28;8843;-58
2023/07/28 02:22:48;;;;;;;;;0.00;0.00;;;;;17.56;86.06;98809.34;5025832;28;8826;-57
2023/07/28 02:25:16;;;;;;;;;0.00;0.00;;;;;17.55;85.50;98807.63;5012274;28;8917;-56
2023/07/28 02:27:44;;;;;;;;;0.00;0.00;;;;;17.57;85.85;98811.00;5015575;28;8824;-57
2023/07/28 02:30:11;;;;;;;;;0.00;0.00;;;;;17.56;85.65;98809.34;5015566;28;8820;-56
2023/07/28 02:32:39;;;;;;;;;0.00;0.00;;;;;17.57;86.00;98802.06;5008727;28;8833;-56
2023/07/28 02:35:06;;;;;;;;;0.60;0.00;;;;;17.59;86.15;98811.63;5005439;28;8940;-58
2023/07/28 02:37:34;;;;;;;;;0.80;0.80;;;;;17.60;85.43;98813.28;5015676;28;9511;-58
2023/07/28 02:40:02;;;;;;;;;0.00;0.00;;;;;17.60;85.33;98818.69;5006491;28;8810;-56
2023/07/28 02:42:30;;;;;;;;;0.00;0.00;;;;;17.60;85.37;98815.16;5023876;28;9531;-58
2023/07/28 02:44:58;;;;;;;;;1.00;1.00;;;;;17.57;85.68;98816.38;5034013;28;8801;-58
2023/07/28 02:47:25;;;;;;;;;0.00;0.00;;;;;17.57;86.07;98818.22;5034216;28;8836;-60
2023/07/28 02:49:53;;;;;;;;;0.60;0.00;;;;;17.57;85.71;98823.63;5033438;28;8808;-59
2023/07/28 02:52:20;;;;;;;;;0.00;0.00;;;;;17.57;85.73;98823.63;5015327;28;8820;-60
2023/07/28 02:54:50;;;;;;;;;1.00;1.00;;;;;17.57;85.93;98820.91;5023721;28;8824;-57
2023/07/28 02:57:17;;;;;;;;;0.20;0.00;;;;;17.56;85.68;98825.50;5015304;28;8871;-57
2023/07/28 02:59:45;;;;;;;;;0.00;0.00;;;;;17.57;85.59;98829.00;5014953;28;8844;-57
2023/07/28 03:02:12;;;;;;;;;0.00;0.00;;;;;17.57;86.04;98835.22;5013322;28;8839;-57
2023/07/28 03:04:40;;;;;;;;;0.20;0.20;;;;;17.57;85.73;98829.84;4996774;28;8841;-57
2023/07/28 03:07:08;;;;;;;;;1.00;0.20;;;;;17.58;85.77;98831.50;4995805;28;8830;-56
2023/07/28 03:09:36;;;;;;;;;0.00;0.00;;;;;17.59;86.03;98840.41;4996586;28;8853;-57
2023/07/28 03:12:05;;;;;;;;;0.00;0.00;;;;;17.59;85.87;98832.31;5001834;28;8846;-57
2023/07/28 03:14:32;;;;;;;;;0.00;0.00;;;;;17.58;85.83;98839.59;4995489;28;8834;-59
2023/07/28 03:17:01;;;;;;;;;0.00;0.00;;;;;17.59;86.10;98843.09;5008287;28;8844;-58
2023/07/28 03:19:28;;;;;;;;;0.00;0.00;;;;;17.59;86.07;98841.25;5015117;28;8840;-57
2023/07/28 03:21:56;;;;;;;;;0.00;0.00;;;;;17.59;85.80;98843.94;5014288;28;8843;-58
2023/07/28 03:24:23;;;;;;;;;0.00;0.00;;;;;17.60;86.15;98839.41;5026370;28;8851;-59
2023/07/28 03:26:51;;;;;;;;;0.00;0.00;;;;;17.59;86.04;98843.94;5033461;28;8951;-58
2023/07/28 03:29:20;;;;;;;;;0.00;0.00;;;;;17.60;86.28;98842.91;5033262;28;8842;-59
2023/07/28 03:31:47;;;;;;;;;0.00;0.00;;;;;17.60;86.13;98842.91;5033331;28;8828;-60
2023/07/28 03:34:15;;;;;;;;;0.00;0.00;;;;;17.61;85.85;98849.97;5032993;28;8848;-58
2023/07/28 03:36:42;;;;;;;;;0.00;0.00;;;;;17.63;85.68;98853.28;5032765;28;8870;-59
2023/07/28 03:39:10;;;;;;;;;0.00;0.00;;;;;17.63;85.79;98853.28;5033236;28;8856;-60
2023/07/28 03:41:38;;;;;;;;;0.00;0.00;;;;;17.63;85.84;98847.06;5032917;28;8862;-57
2023/07/28 03:44:05;;;;;;;;;0.00;0.00;;;;;17.62;85.48;98851.63;5032502;28;8871;-60
2023/07/28 03:46:33;;;;;;;;;0.00;0.00;;;;;17.62;85.83;98848.94;5033012;28;8828;-59
2023/07/28 03:49:01;;;;;;;;;0.00;0.00;;;;;17.63;85.77;98847.91;5032721;28;8862;-58
2023/07/28 03:51:29;;;;;;;;;0.00;0.00;;;;;17.63;85.68;98850.59;5031659;28;9509;-58
2023/07/28 03:53:57;;;;;;;;;0.60;0.00;;;;;17.65;85.38;98862.03;5025055;28;8818;-59
2023/07/28 03:56:24;;;;;;;;;0.00;0.00;;;;;17.65;85.61;98859.34;5012258;28;8839;-60
2023/07/28 03:58:53;;;;;;;;;0.00;0.00;;;;;17.64;85.45;98852.28;5012182;28;8849;-58
2023/07/28 04:01:21;;;;;;;;;0.00;0.00;;;;;17.65;85.83;98851.25;5020896;28;8827;-60
2023/07/28 04:03:49;;;;;;;;;0.00;0.00;;;;;17.67;85.77;98851.03;5030838;28;8826;-58
2023/07/28 04:06:16;;;;;;;;;0.00;0.00;;;;;17.66;85.78;98852.91;5032137;28;8824;-59
2023/07/28 04:08:44;;;;;;;;;0.00;0.00;;;;;17.67;85.80;98857.28;5031261;28;8854;-60
2023/07/28 04:11:12;;;;;;;;;0.00;0.00;;;;;17.68;85.59;98861.63;5032970;28;8804;-59
2023/07/28 04:13:40;;;;;;;;;0.00;0.00;;;;;17.69;85.61;98862.47;5031483;28;8817;-59
2023/07/28 04:16:08;;;;;;;;;0.00;0.00;;;;;17.69;85.51;98863.28;5032739;28;8832;-59
2023/07/28 04:18:35;;;;;;;;;0.00;0.00;;;;;17.70;85.39;98864.94;5028165;28;9528;-58
2023/07/28 04:21:05;;;;;;;;;0.00;0.00;;;;;17.69;85.59;98857.91;5014333;28;8826;-59
2023/07/28 04:23:33;;;;;;;;;0.00;0.00;;;;;17.72;85.44;98865.63;5033568;28;8817;-59
2023/07/28 04:26:00;;;;;;;;;0.00;0.00;;;;;17.74;85.74;98857.31;5035518;28;8878;-60
2023/07/28 04:28:28;;;;;;;;;0.00;0.00;;;;;17.75;85.33;98861.72;5035846;28;8828;-58
2023/07/28 04:30:55;;;;;;;;;0.00;0.00;;;;;17.78;85.36;98866.69;5035859;28;9555;-59
2023/07/28 04:33:23;;;;;;;;;0.00;0.00;;;;;17.79;85.15;98863.81;5017984;28;8821;-57
2023/07/28 04:35:51;;;;;;;;;0.00;0.00;;;;;17.81;85.22;98871.69;5015544;28;9552;-59
2023/07/28 04:38:19;;;;;;;;;0.00;0.00;;;;;17.83;85.70;98875.03;5018448;28;8881;-57
2023/07/28 04:40:46;;;;;;;;;0.00;0.00;;;;;17.86;85.03;98880.88;5034279;28;8844;-58
2023/07/28 04:43:14;;;;;;;;;0.00;0.00;;;;;17.87;85.29;98877.13;5016866;28;8870;-59
2023/07/28 04:45:41;;;;;;;;;0.00;0.00;;;;;17.87;84.88;98879.84;5015265;28;8827;-59
2023/07/28 04:48:09;;;;;;;;;0.00;0.00;;;;;17.89;85.03;98874.22;5015242;28;8830;-57
2023/07/28 04:50:37;;;;;;;;;0.00;0.00;;;;;17.89;85.00;98874.22;5016037;28;8869;-58
2023/07/28 04:53:04;;;;;;;;;0.00;0.00;;;;;17.90;85.57;98875.94;5031624;28;8824;-59
2023/07/28 04:55:33;;;;;;;;;0.00;0.00;;;;;17.90;85.23;98884.00;5035703;28;8827;-58
2023/07/28 04:58:01;;;;;;;;;0.00;0.00;;;;;17.88;85.36;98884.19;5024320;28;8824;-57
2023/07/28 05:00:28;;;;;;;;;0.00;0.00;;;;;17.90;85.78;98884.81;5019485;28;8843;-57
2023/07/28 05:02:56;;;;;;;;;0.00;0.00;;;;;17.91;85.21;98883.78;5033724;28;8812;-58
2023/07/28 05:05:23;;;;;;;;;0.00;0.00;;;;;17.91;85.62;98882.97;5022689;28;8819;-58
2023/07/28 05:07:51;;;;;;;;;0.00;0.00;;;;;17.92;85.24;98880.06;5016578;28;8802;-59
2023/07/28 05:10:19;;;;;;;;;0.00;0.00;;;;;17.96;85.02;98881.34;5015516;28;8826;-59
2023/07/28 05:12:46;;;;;;;;;0.00;0.00;;;;;18.01;85.27;98878.06;5015545;28;8834;-58
2023/07/28 05:15:14;;;;;;;;;0.00;0.00;;;;;18.06;84.97;98881.03;5015357;28;8838;-59
2023/07/28 05:17:42;;;;;;;;;0.00;0.00;;;;;18.13;84.93;98887.31;5016740;28;8830;-59
2023/07/28 05:20:10;;;;;;;;;0.00;0.00;;;;;18.16;84.80;98876.13;5034863;28;8808;-60
2023/07/28 05:22:37;;;;;;;;;0.00;0.00;;;;;18.23;85.08;98880.53;5034956;28;8820;-60
2023/07/28 05:25:05;;;;;;;;;0.00;0.00;;;;;18.30;84.92;98878.75;5034658;28;8836;-57
2023/07/28 05:27:32;;;;;;;;;0.00;0.00;;;;;18.36;84.30;98875.25;5034596;28;8835;-59
2023/07/28 05:30:00;;;;;;;;;0.00;0.00;;;;;18.43;84.55;98883.41;5033654;28;8866;-60
2023/07/28 05:32:28;;;;;;;;;0.00;0.00;;;;;18.51;84.36;98875.16;5033737;28;8824;-59
2023/07/28 05:34:56;;;;;;;;;0.00;0.00;;;;;18.56;83.81;98880.78;5034024;28;8854;-61
2023/07/28 05:37:23;;;;;;;;;0.00;0.00;;;;;18.59;83.71;98880.41;5034264;28;9465;-60
2023/07/28 05:39:51;;;;;;;;;0.00;0.00;;;;;18.65;83.98;98887.66;5033423;28;8840;-58
2023/07/28 05:42:19;;;;;;;;;0.00;0.00;;;;;18.69;83.46;98894.34;5033244;28;8855;-60
2023/07/28 05:44:46;;;;;;;;;0.00;0.00;;;;;18.73;83.68;98888.34;5033198;28;8828;-59
2023/07/28 05:47:14;;;;;;;;;0.00;0.00;;;;;18.77;83.66;98889.63;5033407;28;9782;-60
2023/07/28 05:49:42;;;;;;;;;0.00;0.00;;;;;18.82;83.14;98892.53;5033517;28;8850;-58
2023/07/28 05:52:09;;;;;;;;;0.00;0.00;;;;;18.87;83.57;98895.50;5033784;28;8859;-57
2023/07/28 05:54:37;;;;;;;;;0.00;0.00;;;;;18.92;83.36;98898.44;5034324;28;8820;-59
2023/07/28 05:57:04;;;;;;;;;0.00;0.00;;;;;18.96;83.21;98902.38;5033061;28;8840;-58
2023/07/28 05:59:32;;;;;;;;;0.00;0.00;;;;;18.99;82.86;98903.84;5033625;28;8812;-58
2023/07/28 06:02:00;;;;;;;;;0.00;0.00;;;;;18.99;83.43;98907.41;5033975;28;8834;-58
2023/07/28 06:04:28;;;;;;;;;0.00;0.00;;;;;18.98;83.10;98900.31;5032095;28;8844;-59
2023/07/28 06:06:56;;;;;;;;;0.00;0.00;;;;;18.98;83.10;98899.50;5033265;28;8816;-58
2023/07/28 06:09:23;;;;;;;;;0.00;0.00;;;;;18.96;82.96;98913.16;5031661;28;8848;-57
2023/07/28 06:11:51;;;;;;;;;0.40;0.00;;;;;18.92;83.40;98917.31;5032098;28;9781;-58
2023/07/28 06:14:19;;;;;;;;;0.00;0.00;;;;;18.89;83.88;98912.31;5031869;28;8929;-58
2023/07/28 06:16:47;;;;;;;;;0.00;0.00;;;;;18.87;83.95;98910.84;5031480;28;9558;-58
2023/07/28 06:19:16;;;;;;;;;0.00;0.00;;;;;18.90;83.26;98916.66;5031342;28;8924;-58
2023/07/28 06:21:44;;;;;;;;;0.60;0.60;;;;;18.94;83.43;98917.09;5032579;28;8847;-58
2023/07/28 06:24:12;;;;;;;;;0.00;0.00;;;;;19.01;83.72;98918.81;5022111;28;8814;-58
2023/07/28 06:26:40;;;;;;;;;0.00;0.00;;;;;19.04;83.37;98921.09;5027969;28;8832;-59
2023/07/28 06:29:08;;;;;;;;;0.00;0.00;;;;;19.10;83.35;98928.41;5033545;28;8853;-58
2023/07/28 06:31:35;;;;;;;;;0.00;0.00;;;;;19.13;83.04;98925.28;5033389;28;8843;-58
2023/07/28 06:34:03;;;;;;;;;0.60;0.60;;;;;19.21;83.23;98925.16;5032763;28;8900;-59
2023/07/28 06:36:31;;;;;;;;;1.00;0.00;;;;;19.31;82.58;98931.03;5033507;28;8843;-60
2023/07/28 06:38:59;;;;;;;;;0.00;0.00;;;;;19.44;82.23;98932.94;5031398;28;8971;-59
2023/07/28 06:41:26;;;;;;;;;0.00;0.00;;;;;19.55;82.27;98929.63;5030781;28;8983;-60
2023/07/28 06:43:54;;;;;;;;;0.00;0.00;;;;;19.64;82.05;98931.94;5032637;28;8852;-60
2023/07/28 06:46:22;;;;;;;;;0.40;0.40;;;;;19.72;81.97;98939.88;5031707;28;8847;-59
2023/07/28 06:48:50;;;;;;;;;0.00;0.00;;;;;19.78;81.91;98941.75;5032501;28;8816;-59
2023/07/28 06:51:17;;;;;;;;;0.40;0.00;;;;;19.85;81.73;98944.47;5033214;28;8836;-58
2023/07/28 06:53:45;;;;;;;;;0.00;0.00;;;;;19.86;81.91;98949.66;5029718;28;9002;-59
2023/07/28 06:56:13;;;;;;;;;0.00;0.00;;;;;19.85;81.86;98955.25;5015184;28;8837;-58
2023/07/28 06:58:40;;;;;;;;;0.00;0.00;;;;;19.82;82.08;98961.94;5032565;28;8831;-58
2023/07/28 07:01:10;;;;;;;;;1.00;0.60;;;;;19.77;82.18;98959.00;5031884;28;8827;-60
2023/07/28 07:03:38;;;;;;;;;0.80;0.00;;;;;19.78;82.03;98971.47;5032355;28;8832;-59
2023/07/28 07:06:06;;;;;;;;;0.00;0.00;;;;;19.79;82.12;98962.31;5028293;28;8978;-60
2023/07/28 07:08:42;;;;;;;;;1.00;1.00;;;;;19.81;82.04;98964.84;5129271;27;13362;-59
2023/07/28 07:11:10;;;;;;;;;0.00;0.00;;;;;19.85;82.07;98976.88;5111355;28;8901;-58
2023/07/28 07:13:38;;;;;;;;;0.00;0.00;;;;;19.88;81.61;98980.00;5111501;28;9580;-58
2023/07/28 07:16:06;;;;;;;;;0.40;0.40;;;;;19.89;81.91;98976.28;5111380;28;8831;-59
2023/07/28 07:18:34;;;;;;;;;0.00;0.00;;;;;19.90;81.58;98983.38;5111683;28;8829;-59
2023/07/28 07:21:01;;;;;;;;;1.00;1.00;;;;;19.92;81.70;98984.00;5112014;28;8825;-61
2023/07/28 07:23:29;;;;;;;;;0.00;0.00;;;;;19.96;81.86;98976.31;5112059;28;8827;-59
2023/07/28 07:25:57;;;;;;;;;0.00;0.00;;;;;20.00;81.39;98974.84;5112353;28;8828;-60
2023/07/28 07:28:24;;;;;;;;;0.00;0.00;;;;;20.07;81.41;98984.69;5112174;28;8863;-58
2023/07/28 07:30:53;;;;;;;;;1.00;1.00;;;;;20.17;81.08;98990.50;5112064;28;8851;-59
2023/07/28 07:33:21;;;;;;;;;1.00;1.00;;;;;20.25;80.82;98986.78;5111682;28;8834;-59
2023/07/28 07:35:49;;;;;;;;;1.00;1.00;;;;;20.31;81.13;98986.78;5111484;28;8833;-59
2023/07/28 07:38:16;;;;;;;;;1.20;1.20;;;;;20.41;81.10;98992.59;5111794;28;8853;-59
2023/07/28 07:40:44;;;;;;;;;1.00;1.00;;;;;20.49;80.47;98983.47;5111589;28;9833;-59
2023/07/28 07:43:18;;;;;;;;;1.60;1.00;;;;;20.58;80.34;98988.47;5110889;28;8829;-59
2023/07/28 07:45:46;;;;;;;;;1.80;0.80;;;;;20.59;80.61;98991.97;5111685;28;8841;-59
2023/07/28 07:48:14;;;;;;;;;2.00;2.00;;;;;20.60;80.31;98996.34;5111761;28;8850;-59
2023/07/28 07:50:42;;;;;;;;;2.00;2.00;;;;;20.58;80.38;98984.91;5112068;28;8840;-60
2023/07/28 07:53:11;;;;;;;;;2.00;2.00;;;;;20.59;80.32;98983.88;5112191;28;8818;-60
2023/07/28 07:55:39;;;;;;;;;1.00;1.00;;;;;20.50;80.52;98988.69;5111977;28;8822;-60
2023/07/28 07:58:07;;;;;;;;;0.80;0.80;;;;;20.41;81.03;98984.50;5111807;28;8865;-59
2023/07/28 08:00:35;;;;;;;;;1.00;1.00;;;;;20.44;81.07;98984.09;5111509;28;8816;-61
2023/07/28 08:03:02;;;;;;;;;0.40;0.40;;;;;20.54;81.30;98987.19;5111338;28;8901;-59
2023/07/28 08:05:30;;;;;;;;;1.00;1.00;;;;;20.69;80.25;98985.13;5110631;28;8912;-61
2023/07/28 08:07:58;;;;;;;;;0.40;0.40;;;;;20.81;80.00;98988.88;5110563;28;8846;-60
2023/07/28 08:10:26;;;;;;;;;0.00;0.00;;;;;20.92;80.29;98990.13;5110185;28;8868;-59
2023/07/28 08:12:54;;;;;;;;;1.00;1.00;;;;;20.98;80.25;98995.53;5110732;28;8822;-58
2023/07/28 08:15:22;;;;;;;;;2.40;1.80;;;;;21.01;79.66;98995.09;5110833;28;8822;-61
2023/07/28 08:17:50;;;;;;;;;1.40;1.40;;;;;21.03;79.93;98995.72;5110450;28;8806;-61
2023/07/28 08:20:18;;;;;;;;;0.80;0.80;;;;;21.06;79.89;98998.00;5097478;28;8822;-60
2023/07/28 08:22:46;;;;;;;;;2.00;2.00;;;;;21.11;80.16;98993.59;5098130;28;8802;-59
2023/07/28 08:25:14;;;;;;;;;1.00;1.00;;;;;21.20;79.62;98995.03;5097162;28;8918;-58
2023/07/28 08:27:42;;;;;;;;;2.00;2.00;;;;;21.29;79.79;98998.34;5098305;28;9615;-61
2023/07/28 08:30:10;;;;;;;;;0.60;0.60;;;;;21.34;79.03;98995.84;5096856;28;8822;-59
2023/07/28 08:32:38;;;;;;;;;0.40;0.40;;;;;21.39;78.99;99002.28;5096745;28;8865;-59
2023/07/28 08:35:06;;;;;;;;;1.00;1.00;;;;;21.41;79.19;98997.47;5096906;28;8810;-60
2023/07/28 08:37:33;;;;;;;;;2.00;2.00;;;;;21.47;79.13;99003.91;5097487;28;9855;-60
2023/07/28 08:40:01;;;;;;;;;2.00;1.20;;;;;21.54;78.83;99010.16;5097108;28;8825;-59
2023/07/28 08:42:29;;;;;;;;;1.20;1.20;;;;;21.57;79.02;99007.03;5096498;28;8833;-61
2023/07/28 08:44:57;;;;;;;;;1.40;1.00;;;;;21.57;79.07;99015.16;5096890;28;8825;-60
2023/07/28 08:47:25;;;;;;;;;1.20;1.00;;;;;21.56;79.01;99021.63;5096329;28;8826;-60
2023/07/28 08:49:53;;;;;;;;;1.60;1.00;;;;;21.51;78.88;99029.56;5097335;28;8844;-66
2023/07/28 08:52:21;;;;;;;;;2.80;2.00;;;;;21.49;78.89;99023.53;5097019;28;9564;-60
2023/07/28 08:54:48;;;;;;;;;1.00;1.00;;;;;21.48;79.08;99028.09;5096492;28;8822;-61
2023/07/28 08:57:17;;;;;;;;;1.00;1.00;;;;;21.46;79.34;99032.06;5096811;28;8837;-61
2023/07/28 08:59:47;;;;;;;;;1.80;1.00;;;;;21.50;79.23;99033.31;5096804;28;8810;-59
2023/07/28 09:02:15;;;;;;;;;1.00;1.00;;;;;21.58;78.59;99038.50;5096790;28;9523;-59
2023/07/28 09:04:43;;;;;;;;;2.00;2.00;;;;;21.62;79.02;99031.59;5096691;28;8915;-59
2023/07/28 09:07:11;;;;;;;;;1.00;1.00;;;;;21.71;78.54;99033.88;5096262;28;8830;-58
2023/07/28 09:09:39;;;;;;;;;1.20;1.00;;;;;21.76;78.75;99034.06;5096625;28;8941;-58
2023/07/28 09:12:08;;;;;;;;;0.80;0.80;;;;;21.81;78.19;99031.56;5097166;28;8818;-59
2023/07/28 09:14:36;;;;;;;;;0.00;0.00;;;;;21.82;78.37;99044.06;5096446;28;8861;-61
2023/07/28 09:17:04;;;;;;;;;0.00;0.00;;;;;21.80;78.33;99046.13;5096675;28;8795;-59
2023/07/28 09:19:32;;;;;;;;;0.00;0.00;;;;;21.78;78.38;99040.09;5097235;28;8831;-61
2023/07/28 09:22:00;;;;;;;;;0.00;0.00;;;;;21.83;78.18;99044.88;5096670;28;8814;-59
2023/07/28 09:24:28;;;;;;;;;0.00;0.00;;;;;21.96;78.52;99044.81;5096226;28;8830;-59
2023/07/28 09:26:56;;;;;;;;;0.00;0.00;;;;;22.08;77.79;99053.97;5096876;28;8956;-60
2023/07/28 09:29:24;;;;;;;;;1.00;0.00;;;;;22.11;77.84;99048.09;5095854;28;9006;-59
2023/07/28 09:31:52;;;;;;;;;1.00;1.00;;;;;22.12;77.38;99049.75;5094749;28;8956;-62
2023/07/28 09:34:20;;;;;;;;;0.20;0.20;;;;;22.07;77.79;99060.41;5094515;28;8843;-61
2023/07/28 09:36:48;;;;;;;;;1.00;1.00;;;;;22.05;78.23;99054.38;5095638;28;8840;-60
2023/07/28 09:39:18;;;;;;;;;1.00;1.00;;;;;22.12;77.82;99049.75;5095785;28;8811;-61
2023/07/28 09:41:46;;;;;;;;;1.20;0.20;;;;;22.19;77.55;99043.25;5096051;28;9766;-58
2023/07/28 09:44:14;;;;;;;;;1.00;0.80;;;;;22.34;77.22;99042.94;5096453;28;8843;-60
2023/07/28 09:46:42;;;;;;;;;0.40;0.40;;;;;22.47;77.04;99048.31;5096018;28;8824;-60
2023/07/28 09:49:10;;;;;;;;;0.20;0.20;;;;;22.48;76.77;99044.53;5095799;28;8837;-59
2023/07/28 09:51:38;;;;;;;;;0.80;0.80;;;;;22.54;76.69;99043.69;5096272;28;8827;-59
2023/07/28 09:54:06;;;;;;;;;1.00;1.00;;;;;22.71;76.49;99036.66;5096592;28;8831;-60
2023/07/28 09:56:34;;;;;;;;;0.00;0.00;;;;;22.88;75.71;99043.19;5095836;28;8820;-59
2023/07/28 09:59:03;;;;;;;;;0.20;0.20;;;;;23.08;75.56;99041.94;5095980;28;8835;-58
2023/07/28 10:01:31;;;;;;;;;0.00;0.00;;;;;23.45;74.76;99045.59;5095766;28;8824;-59
2023/07/28 10:04:00;;;;;;;;;0.00;0.00;;;;;23.65;74.27;99046.16;5094642;28;8830;-59
2023/07/28 10:06:28;;;;;;;;;1.00;1.00;;;;;23.91;73.32;99043.97;5094554;28;8891;-60
2023/07/28 10:08:55;;;;;;;;;0.80;0.20;;;;;24.24;72.79;99038.09;5095324;28;8902;-60
2023/07/28 10:11:23;;;;;;;;;1.00;1.00;;;;;24.78;71.87;99037.91;5095268;28;8953;-59
2023/07/28 10:13:52;;;;;;;;;1.00;1.00;;;;;25.10;70.85;99040.09;5094821;28;8822;-61
2023/07/28 10:16:20;;;;;;;;;1.00;0.60;;;;;25.06;70.86;99043.53;5094718;28;8840;-61
2023/07/28 10:18:48;;;;;;;;;1.00;1.00;;;;;25.00;71.57;99036.28;5095042;28;8810;-60
2023/07/28 10:21:16;;;;;;;;;0.00;0.00;;;;;24.92;71.91;99042.94;5095046;28;8818;-59
2023/07/28 10:23:43;;;;;;;;;0.00;0.00;;;;;24.95;71.94;99058.00;5094956;28;9583;-59
2023/07/28 10:26:13;;;;;;;;;1.20;1.20;;;;;25.34;70.88;99051.88;5095466;28;8844;-59
2023/07/28 10:28:46;;;;;;;;;1.00;1.00;;;;;25.13;71.44;99058.72;5095857;28;8965;-59
2023/07/28 10:31:16;;;;;;;;;0.40;0.40;;;;;24.68;72.79;99057.59;5094364;28;8826;-59
2023/07/28 10:33:44;;;;;;;;;1.00;1.00;;;;;24.30;73.87;99064.41;5095286;28;8818;-59
2023/07/28 10:36:12;;;;;;;;;1.00;0.60;;;;;24.02;74.07;99072.31;5094097;28;8822;-58
2023/07/28 10:38:43;;;;;;;;;1.40;1.40;;;;;23.90;75.09;99069.53;5095034;28;8940;-60
2023/07/28 10:41:11;;;;;;;;;0.00;0.00;;;;;23.83;74.83;99070.66;5094595;28;8806;-60
2023/07/28 10:43:39;;;;;;;;;1.40;1.40;;;;;23.82;74.62;99071.72;5094565;28;8830;-58
2023/07/28 10:46:07;;;;;;;;;2.80;2.60;;;;;23.89;74.40;99067.88;5094601;28;8938;-59
2023/07/28 10:48:35;;;;;;;;;1.00;1.00;;;;;24.02;73.96;99069.59;5094228;28;8822;-60
2023/07/28 10:51:03;;;;;;;;;1.00;1.00;;;;;24.08;74.30;99071.41;5094308;28;8814;-60
2023/07/28 10:53:31;;;;;;;;;1.00;1.00;;;;;24.00;74.52;99079.88;5093352;28;8826;-59
2023/07/28 10:55:59;;;;;;;;;1.00;1.00;;;;;23.87;74.51;99080.88;5093449;28;8918;-59
2023/07/28 10:58:27;;;;;;;;;1.00;0.60;;;;;23.92;73.93;99085.63;5093959;28;8837;-59
2023/07/28 11:00:55;;;;;;;;;1.00;1.00;;;;;24.12;74.11;99087.03;5094565;28;8818;-59
2023/07/28 11:03:23;;;;;;;;;3.20;2.20;;;;;24.15;73.54;99092.03;5093970;28;8838;-59
2023/07/28 11:05:51;;;;;;;;;3.20;2.60;;;;;24.02;73.79;99092.22;5093847;28;8837;-59
2023/07/28 11:08:19;;;;;;;;;4.20;3.40;;;;;23.90;74.25;99085.03;5093067;28;8833;-59
2023/07/28 11:10:47;;;;;;;;;2.00;2.00;;;;;23.83;74.09;99089.69;5093238;28;8822;-59
2023/07/28 11:13:15;;;;;;;;;2.00;2.00;;;;;23.72;74.78;99095.88;5093685;28;8844;-59
2023/07/28 11:16:04;;;;;;;;;2.00;2.00;;;;;23.70;74.53;99098.00;5094843;28;8842;-59
2023/07/28 11:18:32;;;;;;;;;5.00;5.00;;;;;23.59;74.88;99098.75;5093251;28;8833;-58
2023/07/28 11:21:00;;;;;;;;;4.40;2.60;;;;;23.42;75.38;99097.66;5093723;28;8816;-59
2023/07/28 11:23:28;;;;;;;;;4.60;4.00;;;;;23.21;75.80;99098.91;5093765;28;8815;-59
2023/07/28 11:25:56;;;;;;;;;4.60;3.80;;;;;23.03;75.93;99106.16;5073624;28;8828;-59
2023/07/28 11:28:24;;;;;;;;;4.20;4.20;;;;;22.91;76.12;99099.78;5072824;28;8816;-61
2023/07/28 11:30:52;;;;;;;;;4.60;4.00;;;;;23.05;76.20;99104.88;5073296;28;8916;-58
2023/07/28 11:33:20;;;;;;;;;4.20;3.00;;;;;23.83;74.16;99095.94;5073508;28;8836;-59
2023/07/28 11:35:48;;;;;;;;;4.20;2.80;;;;;24.29;72.86;99085.38;5074879;28;8859;-60
2023/07/28 11:38:16;;;;;;;;;5.00;4.80;;;;;24.44;72.25;99087.66;5094100;28;8916;-58
2023/07/28 11:40:44;;;;;;;;;5.20;3.80;;;;;24.69;71.90;99094.66;5094054;28;8839;-59
2023/07/28 11:43:12;;;;;;;;;5.00;5.00;;;;;25.00;70.79;99088.06;5094632;28;9532;-59
2023/07/28 11:45:40;;;;;;;;;4.20;3.00;;;;;25.35;70.65;99081.63;5094267;28;9542;-59